首页
METAR-TAF:

METAR-TAF

机场 :

Virginia Highlands Airport

阿宾登, 弗吉尼亚州, 美国

纬度: 36-41N, 经度: 082-02W, 海拔: 631米

当前天气观测

该预报发布于18分钟前的15:55 UTC
风速4节,风向西
温度 27°C
湿度 70%
气压 1021 hPa
能見度: 16.1公里
散云层高于3600英尺
散云层高于4300英尺
多云层高于12000英尺

METAR: KVJI 161555Z AUTO 27004KT 10SM SCT036 SCT043 BKN120 27/21 A3014 RMK AO2 T02710213

时间: 12:13 (16:13 UTC)


TAF: 丢失

超过4000个机场的气象观测和天气预报(METAR&TAF报告)。

可查询的气象台以黄色和红色小点在地图上表示。

将鼠标移到小点上方,可查看气象台名称。

然后点击查看天气观测和预报。

如需切换地图:点击带黑十字的绿色按钮放大地图;点击带横线的绿色按钮缩小地图;或者点击绿色箭头查看邻近地区的地图。


METAR-TAF: